Kezdőlap
METAR-TAF:

METAR-TAF

Repülőterek :

Block Island, Rhode Island, Amerikai Egyesült Államok

földrajzi szélesség: 41-10N, földrajzi hosszúság: 071-34W, magasság: 33 m

Jelenlegi meteorológiai megfigyelések

A jelentés 11 perccel ezelõtt készült, 22:21 UTC
Déli szél 9 kt
Hőmérséklet -2°C
Páratartalom 93%
Légköri nyomás 1023 hPa
Látótávolság: 2.0 km
Szakadozott felhőzet 500 lábon
Borult 1000 lábon
enyhe havazás, Párásság

METAR: KBID 182221Z AUTO 17009KT 1 1/4SM -SN BR BKN005 OVC010 M02/M03 A3020 RMK AO2 CIG 004V007 P0001 FZRANO

Idő: 17:32 (22:32 UTC)


TAF: hiányzik

Meteorológiai megfigyelések és előrejelzések több, mint 4000 repülőtéren (METAR és TAF jelentéseket).

A térképen piros és sárga pontok jelzik az elérhető meteorológiai állomásokat.

Mozgassa az egeret a pont fölött, hogy megjelenjen az állomás neve.

Azután kattintson az időjárási megfigyelések és előrejelzések megtekintéséhez.

A térkép megváltoztatása: kattintson a fekete keresztel jelölt zöld gombra ráközelítéshez, a vonallal jelölt zöld gombra távolításhoz, vagy a zöld nyilakra a szomszédos térképek eléréséhez.


METAR-TAF: